createdAt,value
2022-09-30T00:02:44.775Z,11.79
2022-09-30T00:05:48.022Z,11.83
2022-09-30T00:08:50.428Z,11.88
2022-09-30T00:11:53.492Z,11.79
2022-09-30T00:14:55.810Z,11.78
2022-09-30T00:17:59.726Z,11.85
2022-09-30T00:21:02.034Z,11.83
2022-09-30T00:24:05.437Z,11.85
2022-09-30T00:27:07.771Z,11.86
2022-09-30T00:30:10.552Z,11.88
2022-09-30T00:33:12.774Z,11.87
2022-09-30T00:36:17.848Z,11.89
2022-09-30T00:39:24.436Z,11.87
2022-09-30T00:42:29.602Z,11.81
2022-09-30T00:45:33.072Z,11.78
2022-09-30T00:48:37.559Z,11.78
2022-09-30T00:51:45.517Z,11.85
2022-09-30T00:54:48.169Z,11.76
2022-09-30T00:57:50.470Z,11.70
2022-09-30T01:00:53.319Z,11.68
2022-09-30T01:03:59.327Z,11.68
2022-09-30T01:07:03.124Z,11.81
2022-09-30T01:10:05.684Z,11.79
2022-09-30T01:13:08.352Z,11.87
2022-09-30T01:16:16.389Z,11.86
2022-09-30T01:19:24.748Z,11.81
2022-09-30T01:22:41.937Z,11.80
2022-09-30T01:26:03.604Z,11.87
2022-09-30T01:29:15.240Z,11.84
2022-09-30T01:32:42.255Z,11.82
2022-09-30T01:36:00.596Z,11.85
2022-09-30T01:39:15.200Z,11.89
2022-09-30T01:42:30.931Z,11.90
2022-09-30T01:45:37.970Z,11.86
2022-09-30T01:48:50.631Z,11.88
2022-09-30T01:52:04.478Z,11.96
2022-09-30T01:55:23.567Z,11.96
2022-09-30T01:58:35.468Z,11.91
2022-09-30T02:01:50.114Z,11.94
2022-09-30T02:04:57.686Z,11.93
2022-09-30T02:08:10.133Z,11.92
2022-09-30T02:11:15.384Z,11.86
2022-09-30T02:14:26.396Z,11.84
2022-09-30T02:17:33.066Z,11.88
2022-09-30T02:20:38.974Z,11.90
2022-09-30T02:23:43.297Z,11.93
2022-09-30T02:26:47.511Z,11.93
2022-09-30T02:29:52.926Z,11.95
2022-09-30T02:32:57.528Z,11.97
2022-09-30T02:36:06.867Z,11.94
2022-09-30T02:39:29.778Z,11.97
2022-09-30T02:42:32.917Z,12.00
2022-09-30T02:45:43.207Z,11.97
2022-09-30T02:48:51.990Z,12.00
2022-09-30T02:52:13.027Z,12.01
2022-09-30T02:55:18.463Z,11.99
2022-09-30T02:58:21.866Z,12.02
2022-09-30T03:01:24.609Z,12.05
2022-09-30T03:04:29.147Z,11.99
2022-09-30T03:07:31.754Z,11.99
2022-09-30T03:10:34.141Z,12.01
2022-09-30T03:13:52.145Z,12.01
2022-09-30T03:17:05.809Z,12.02
2022-09-30T03:20:34.720Z,12.04
2022-09-30T03:23:56.456Z,12.10
2022-09-30T03:26:58.949Z,12.11
2022-09-30T03:30:09.461Z,12.15
2022-09-30T03:33:18.053Z,12.19
2022-09-30T03:36:35.735Z,12.17
2022-09-30T03:39:41.149Z,12.17
2022-09-30T03:42:50.747Z,12.21
2022-09-30T03:46:12.345Z,12.21
2022-09-30T03:49:20.195Z,12.20
2022-09-30T03:52:24.269Z,12.26
2022-09-30T03:55:26.965Z,12.28
2022-09-30T03:58:29.576Z,12.28
2022-09-30T04:01:31.827Z,12.32
2022-09-30T04:04:34.740Z,12.31
2022-09-30T04:07:37.051Z,12.34
2022-09-30T04:10:43.824Z,12.33
2022-09-30T04:13:46.061Z,12.40
2022-09-30T04:16:53.128Z,12.39
2022-09-30T04:19:56.125Z,12.40
2022-09-30T04:22:59.303Z,12.42
2022-09-30T04:26:02.208Z,12.40
2022-09-30T04:29:04.771Z,12.42
2022-09-30T04:32:06.966Z,12.41
2022-09-30T04:35:09.524Z,12.46
2022-09-30T04:38:11.720Z,12.43
2022-09-30T04:41:16.187Z,12.41
2022-09-30T04:44:18.425Z,12.42
2022-09-30T04:47:21.610Z,12.42
2022-09-30T04:50:23.961Z,12.46
2022-09-30T04:53:26.720Z,12.47
2022-09-30T04:56:28.968Z,12.53
2022-09-30T04:59:33.774Z,12.51
2022-09-30T05:02:36.324Z,12.53
2022-09-30T05:05:38.885Z,12.49
2022-09-30T05:08:46.159Z,12.54
2022-09-30T05:11:49.123Z,12.60
2022-09-30T05:14:51.369Z,12.59
2022-09-30T05:17:53.998Z,12.70
2022-09-30T05:20:57.758Z,12.71
2022-09-30T05:24:00.343Z,12.73
2022-09-30T05:27:02.564Z,12.82
2022-09-30T05:30:06.621Z,12.79
2022-09-30T05:33:09.479Z,12.86
2022-09-30T05:36:13.811Z,12.88
2022-09-30T05:39:16.552Z,12.97
2022-09-30T05:42:19.084Z,12.93
2022-09-30T05:45:21.623Z,12.99
2022-09-30T05:48:25.600Z,12.97
2022-09-30T05:51:27.902Z,13.01
2022-09-30T05:54:30.368Z,13.01
2022-09-30T05:57:32.647Z,13.06
2022-09-30T06:00:35.331Z,13.01
2022-09-30T06:03:38.414Z,13.00
2022-09-30T06:06:40.668Z,13.02
2022-09-30T06:09:43.512Z,13.06
2022-09-30T06:12:45.827Z,13.06
2022-09-30T06:15:57.015Z,12.99
2022-09-30T06:18:59.524Z,12.99
2022-09-30T06:22:02.055Z,13.03
2022-09-30T06:25:05.477Z,13.03
2022-09-30T06:28:08.008Z,13.04
2022-09-30T06:31:11.329Z,13.09
2022-09-30T06:34:13.949Z,13.07
2022-09-30T06:37:16.185Z,13.06
2022-09-30T06:40:21.212Z,13.13
2022-09-30T06:43:23.488Z,13.15
2022-09-30T06:46:30.584Z,13.16
2022-09-30T06:49:47.226Z,13.21
2022-09-30T06:52:52.206Z,13.21
2022-09-30T06:55:58.099Z,13.25
2022-09-30T06:59:01.725Z,13.26
2022-09-30T07:02:04.197Z,13.28
2022-09-30T07:05:06.906Z,13.34
2022-09-30T07:08:10.626Z,13.40
2022-09-30T07:11:17.010Z,13.40
2022-09-30T07:14:19.271Z,13.46
2022-09-30T07:17:21.929Z,13.47
2022-09-30T07:20:24.882Z,13.46
2022-09-30T07:23:27.564Z,13.50
2022-09-30T07:26:31.104Z,13.47
2022-09-30T07:29:56.634Z,13.49
2022-09-30T07:32:56.435Z,13.51
2022-09-30T07:36:00.122Z,13.53
2022-09-30T07:39:08.843Z,13.54
2022-09-30T07:42:11.996Z,13.54
2022-09-30T07:45:18.522Z,13.56
2022-09-30T07:48:39.172Z,13.60
2022-09-30T07:51:45.153Z,13.64
2022-09-30T07:54:50.566Z,13.68
2022-09-30T07:57:53.161Z,13.70
2022-09-30T08:00:55.834Z,13.77
2022-09-30T08:04:01.975Z,13.80
2022-09-30T08:07:05.424Z,13.84
2022-09-30T08:10:08.190Z,13.94
2022-09-30T08:13:13.843Z,13.95
2022-09-30T08:16:17.314Z,13.99
2022-09-30T08:19:20.853Z,14.14
2022-09-30T08:22:23.908Z,14.18
2022-09-30T08:25:27.631Z,14.25
2022-09-30T08:28:31.932Z,14.23
2022-09-30T08:31:34.333Z,14.25
2022-09-30T08:34:36.914Z,14.29
2022-09-30T08:37:39.127Z,14.36
2022-09-30T08:40:52.963Z,14.44
2022-09-30T08:43:58.234Z,14.42
2022-09-30T08:47:19.396Z,14.36
2022-09-30T08:50:24.600Z,14.44
2022-09-30T08:53:30.576Z,14.59
2022-09-30T08:56:33.535Z,14.58
2022-09-30T08:59:38.602Z,14.54
2022-09-30T09:02:44.895Z,14.56
2022-09-30T09:05:55.019Z,14.52
2022-09-30T09:09:16.297Z,14.49
2022-09-30T09:12:18.978Z,14.58
2022-09-30T09:15:23.979Z,14.58
2022-09-30T09:18:35.870Z,14.60
2022-09-30T09:21:42.408Z,14.91
2022-09-30T09:24:47.378Z,15.15
2022-09-30T09:27:55.000Z,15.33
2022-09-30T09:30:58.880Z,15.85
2022-09-30T09:34:07.917Z,16.59
2022-09-30T09:37:21.263Z,16.91
2022-09-30T09:40:34.891Z,16.72
2022-09-30T09:43:48.340Z,16.69
2022-09-30T09:46:55.515Z,16.83
2022-09-30T09:49:59.329Z,16.72
2022-09-30T09:53:17.639Z,16.66
2022-09-30T09:56:21.637Z,16.61
2022-09-30T09:59:24.252Z,16.87
2022-09-30T10:02:28.690Z,17.27
2022-09-30T10:05:39.608Z,17.14
2022-09-30T10:08:55.378Z,17.17
2022-09-30T10:12:06.964Z,16.96
2022-09-30T10:15:19.400Z,16.80
2022-09-30T10:18:27.716Z,16.71
2022-09-30T10:21:32.929Z,16.60
2022-09-30T10:24:37.241Z,16.48
2022-09-30T10:27:47.078Z,16.41
2022-09-30T10:31:00.977Z,16.43
2022-09-30T10:34:29.608Z,16.39
2022-09-30T10:37:34.032Z,16.22
2022-09-30T10:40:36.227Z,16.08
2022-09-30T10:43:44.283Z,16.05
2022-09-30T10:46:48.379Z,15.97
2022-09-30T10:50:05.279Z,15.90
2022-09-30T10:53:17.553Z,15.81
2022-09-30T10:56:33.543Z,15.86
2022-09-30T10:59:38.295Z,16.10
2022-09-30T11:02:43.682Z,16.38
2022-09-30T11:05:49.202Z,16.54
2022-09-30T11:08:58.032Z,16.63
2022-09-30T11:12:02.931Z,16.62
2022-09-30T11:15:14.347Z,16.54
2022-09-30T11:18:25.716Z,16.43
2022-09-30T11:21:34.044Z,16.52
2022-09-30T11:24:41.700Z,16.44
2022-09-30T11:27:44.875Z,16.30
2022-09-30T11:31:07.367Z,16.27
2022-09-30T11:34:20.344Z,16.26
2022-09-30T11:37:31.676Z,16.44
2022-09-30T11:40:46.618Z,16.73
2022-09-30T11:43:52.336Z,16.85
2022-09-30T11:47:00.807Z,16.87
2022-09-30T11:50:17.457Z,16.73
2022-09-30T11:53:23.412Z,16.73
2022-09-30T11:56:42.490Z,16.70
2022-09-30T11:59:50.978Z,16.90
2022-09-30T12:02:56.042Z,17.54
2022-09-30T12:06:02.572Z,18.01
2022-09-30T12:09:08.283Z,17.99
2022-09-30T12:12:16.679Z,17.91
2022-09-30T12:15:20.988Z,18.13
2022-09-30T12:18:41.400Z,18.78
2022-09-30T12:21:57.280Z,18.94
2022-09-30T12:25:01.355Z,19.03
2022-09-30T12:28:45.645Z,19.15
2022-09-30T12:32:03.986Z,19.10
2022-09-30T12:35:06.333Z,19.21
2022-09-30T12:38:25.844Z,19.09
2022-09-30T12:41:47.036Z,19.01
2022-09-30T12:45:08.419Z,19.22
2022-09-30T12:48:17.722Z,19.27
2022-09-30T12:51:29.911Z,19.18
2022-09-30T12:54:34.356Z,18.90
2022-09-30T12:57:40.047Z,18.72
2022-09-30T13:00:58.617Z,18.60
2022-09-30T13:04:01.220Z,18.39
2022-09-30T13:07:03.492Z,18.72
2022-09-30T13:10:30.730Z,18.82
2022-09-30T13:13:36.955Z,18.56
2022-09-30T13:16:58.844Z,18.50
2022-09-30T13:20:01.261Z,18.50
2022-09-30T13:23:03.903Z,18.29
2022-09-30T13:26:32.905Z,18.16
2022-09-30T13:29:38.355Z,18.33
2022-09-30T13:32:57.577Z,18.34
2022-09-30T13:36:07.645Z,18.23
2022-09-30T13:39:25.738Z,18.51
2022-09-30T13:42:34.580Z,18.40
2022-09-30T13:45:39.541Z,18.77
2022-09-30T13:48:45.049Z,18.98
2022-09-30T13:51:47.550Z,19.23
2022-09-30T13:54:51.277Z,19.30
2022-09-30T13:58:12.530Z,19.21
2022-09-30T14:01:26.569Z,19.06
2022-09-30T14:04:47.990Z,19.22
2022-09-30T14:07:54.428Z,19.24
2022-09-30T14:11:09.438Z,19.12
2022-09-30T14:14:31.126Z,19.08
2022-09-30T14:17:52.619Z,18.85
2022-09-30T14:21:09.354Z,18.95
2022-09-30T14:24:16.231Z,18.92
2022-09-30T14:27:29.056Z,18.82
2022-09-30T14:30:40.219Z,18.56
2022-09-30T14:33:45.337Z,18.24
2022-09-30T14:36:50.551Z,18.05
2022-09-30T14:39:52.953Z,17.86
2022-09-30T14:42:59.882Z,17.87
2022-09-30T14:46:06.011Z,17.77
2022-09-30T14:49:13.524Z,17.69
2022-09-30T14:52:36.550Z,17.50
2022-09-30T14:55:39.036Z,17.42
2022-09-30T14:58:44.945Z,17.24
2022-09-30T15:01:49.775Z,17.16
2022-09-30T15:04:57.020Z,17.14
2022-09-30T15:08:03.185Z,17.12
2022-09-30T15:11:05.599Z,17.03
2022-09-30T15:14:29.222Z,16.91
2022-09-30T15:17:38.039Z,16.81
2022-09-30T15:20:42.331Z,16.69
2022-09-30T15:23:52.291Z,16.57
2022-09-30T15:26:55.590Z,16.42
2022-09-30T15:29:59.796Z,16.14
2022-09-30T15:33:04.448Z,16.02
2022-09-30T15:36:17.272Z,15.92
2022-09-30T15:39:48.954Z,15.82
2022-09-30T15:42:56.653Z,15.59
2022-09-30T15:46:07.216Z,15.47
2022-09-30T15:49:35.057Z,15.41
2022-09-30T15:52:40.014Z,15.40
2022-09-30T15:55:43.902Z,15.36
2022-09-30T15:59:00.296Z,15.27
2022-09-30T16:02:02.636Z,15.14
2022-09-30T16:05:05.496Z,15.10
2022-09-30T16:08:09.765Z,14.94
2022-09-30T16:11:30.911Z,14.71
2022-09-30T16:14:35.582Z,14.60
2022-09-30T16:17:46.070Z,14.46
2022-09-30T16:20:59.212Z,14.50
2022-09-30T16:24:02.086Z,14.54
2022-09-30T16:27:20.659Z,14.43
2022-09-30T16:30:23.518Z,14.41
2022-09-30T16:33:25.784Z,14.39
2022-09-30T16:36:28.423Z,14.29
2022-09-30T16:39:30.721Z,14.18
2022-09-30T16:42:33.231Z,14.06
2022-09-30T16:45:36.764Z,14.04
2022-09-30T16:48:40.052Z,14.03
2022-09-30T16:51:43.013Z,14.19
2022-09-30T16:54:45.603Z,14.13
2022-09-30T16:57:47.989Z,14.08
2022-09-30T17:00:50.593Z,14.04
2022-09-30T17:03:53.467Z,14.02
2022-09-30T17:06:57.168Z,13.97
2022-09-30T17:09:59.676Z,13.87
2022-09-30T17:13:03.513Z,13.77
2022-09-30T17:16:05.889Z,13.71
2022-09-30T17:19:08.925Z,13.68
2022-09-30T17:22:11.547Z,13.64
2022-09-30T17:25:14.947Z,13.59
2022-09-30T17:28:17.872Z,13.56
2022-09-30T17:31:20.471Z,13.53
2022-09-30T17:34:22.932Z,13.51
2022-09-30T17:37:27.065Z,13.51
2022-09-30T17:40:48.987Z,13.47
2022-09-30T17:43:51.578Z,13.37
2022-09-30T17:47:00.148Z,13.34
2022-09-30T17:50:03.570Z,13.25
2022-09-30T17:53:06.187Z,13.17
2022-09-30T17:56:16.932Z,13.12
2022-09-30T17:59:21.464Z,13.03
2022-09-30T18:02:25.281Z,13.04
2022-09-30T18:05:28.331Z,12.97
2022-09-30T18:08:30.961Z,12.90
2022-09-30T18:11:39.384Z,12.81
2022-09-30T18:14:46.354Z,12.77
2022-09-30T18:17:49.064Z,12.67
2022-09-30T18:20:51.998Z,12.68
2022-09-30T18:23:57.403Z,12.58
2022-09-30T18:26:59.621Z,12.53
2022-09-30T18:30:04.352Z,12.53
2022-09-30T18:33:07.706Z,12.45
2022-09-30T18:36:10.257Z,12.40
2022-09-30T18:39:12.492Z,12.45
2022-09-30T18:42:15.820Z,12.44
2022-09-30T18:45:18.533Z,12.43
2022-09-30T18:48:21.093Z,12.44
2022-09-30T18:51:24.933Z,12.41
2022-09-30T18:54:27.687Z,12.43
2022-09-30T18:57:32.387Z,12.60
2022-09-30T19:00:35.014Z,12.61
2022-09-30T19:03:37.289Z,12.61
2022-09-30T19:06:42.471Z,12.63
2022-09-30T19:09:46.617Z,12.63
2022-09-30T19:12:49.661Z,12.64
2022-09-30T19:15:51.977Z,12.70
2022-09-30T19:19:01.408Z,12.76
2022-09-30T19:22:05.102Z,12.81
2022-09-30T19:25:08.645Z,12.84
2022-09-30T19:28:11.983Z,12.86
2022-09-30T19:31:16.967Z,12.88
2022-09-30T19:34:31.043Z,12.89
2022-09-30T19:37:35.036Z,12.90
2022-09-30T19:40:37.577Z,12.89
2022-09-30T19:43:40.848Z,12.95
2022-09-30T19:46:43.187Z,13.03
2022-09-30T19:49:45.830Z,13.06
2022-09-30T19:52:56.998Z,13.09
2022-09-30T19:56:00.692Z,13.11
2022-09-30T19:59:05.623Z,13.14
2022-09-30T20:02:09.699Z,13.16
2022-09-30T20:05:12.535Z,13.22
2022-09-30T20:08:14.999Z,13.25
2022-09-30T20:11:19.865Z,13.18
2022-09-30T20:14:40.913Z,13.12
2022-09-30T20:17:43.539Z,13.10
2022-09-30T20:20:46.456Z,13.20
2022-09-30T20:23:50.692Z,13.10
2022-09-30T20:26:52.960Z,13.08
2022-09-30T20:29:55.487Z,13.05
2022-09-30T20:33:02.119Z,13.10
2022-09-30T20:36:05.192Z,13.04
2022-09-30T20:39:07.872Z,13.03
2022-09-30T20:42:10.358Z,13.00
2022-09-30T20:45:12.835Z,12.99
2022-09-30T20:48:15.821Z,13.07
2022-09-30T20:51:19.363Z,13.05
2022-09-30T20:54:22.524Z,13.11
2022-09-30T20:57:24.815Z,13.05
2022-09-30T21:00:27.323Z,13.04
2022-09-30T21:03:30.676Z,13.01
2022-09-30T21:06:33.778Z,12.97
2022-09-30T21:09:36.064Z,12.98
2022-09-30T21:12:38.753Z,12.96
2022-09-30T21:15:41.197Z,12.94
2022-09-30T21:18:44.390Z,12.97
2022-09-30T21:21:46.660Z,12.91
2022-09-30T21:24:49.748Z,12.89
2022-09-30T21:27:52.816Z,12.87
2022-09-30T21:30:56.267Z,12.86
2022-09-30T21:33:59.263Z,12.95
2022-09-30T21:37:01.943Z,12.91
2022-09-30T21:40:04.255Z,12.90
2022-09-30T21:43:07.047Z,12.90
2022-09-30T21:46:10.717Z,12.80
2022-09-30T21:49:18.104Z,12.73
2022-09-30T21:52:22.128Z,12.73
2022-09-30T21:55:25.596Z,12.76
2022-09-30T21:58:29.241Z,12.84
2022-09-30T22:01:32.244Z,12.86
2022-09-30T22:04:34.923Z,12.92
2022-09-30T22:07:38.040Z,12.90
2022-09-30T22:10:43.024Z,12.89
2022-09-30T22:13:46.081Z,12.87
2022-09-30T22:16:48.653Z,12.90
2022-09-30T22:19:51.195Z,12.97
2022-09-30T22:22:53.896Z,12.99
2022-09-30T22:25:58.828Z,12.97
2022-09-30T22:29:03.381Z,12.91
2022-09-30T22:32:05.714Z,12.92
2022-09-30T22:35:29.322Z,12.93
2022-09-30T22:38:31.576Z,12.91
2022-09-30T22:41:34.537Z,12.89
2022-09-30T22:44:37.597Z,12.89
2022-09-30T22:47:40.163Z,12.88
2022-09-30T22:50:42.896Z,12.84
2022-09-30T22:53:45.561Z,12.94
2022-09-30T22:56:50.417Z,12.88
2022-09-30T22:59:53.080Z,12.82
2022-09-30T23:02:55.471Z,12.90
2022-09-30T23:06:01.930Z,12.86
2022-09-30T23:09:05.524Z,12.86
2022-09-30T23:12:07.990Z,12.89
2022-09-30T23:15:10.319Z,12.86
2022-09-30T23:18:13.060Z,12.85
2022-09-30T23:21:16.925Z,12.81
2022-09-30T23:24:19.498Z,12.81
2022-09-30T23:27:21.716Z,12.85
2022-09-30T23:30:24.907Z,12.84
2022-09-30T23:33:27.511Z,12.82
2022-09-30T23:36:31.466Z,12.77
2022-09-30T23:39:33.785Z,12.78
2022-09-30T23:42:36.364Z,12.82
2022-09-30T23:45:38.633Z,12.85
2022-09-30T23:48:41.367Z,12.85
2022-09-30T23:51:43.627Z,12.84
2022-09-30T23:54:46.178Z,12.88
2022-09-30T23:57:48.560Z,12.91
